createdAt,value
2022-10-10T00:00:49.075Z,99488.91
2022-10-10T00:03:16.656Z,99491.19
2022-10-10T00:05:43.832Z,99470.81
2022-10-10T00:08:10.753Z,99480.94
2022-10-10T00:10:38.204Z,99472.66
2022-10-10T00:13:06.442Z,99472.50
2022-10-10T00:15:33.386Z,99464.25
2022-10-10T00:18:00.336Z,99472.97
2022-10-10T00:20:27.062Z,99434.72
2022-10-10T00:22:54.350Z,99452.75
2022-10-10T00:25:21.696Z,99451.63
2022-10-10T00:27:48.475Z,99450.78
2022-10-10T00:30:15.182Z,99471.44
2022-10-10T00:32:41.957Z,99456.22
2022-10-10T00:35:09.042Z,99451.75
2022-10-10T00:37:35.774Z,99442.03
2022-10-10T00:40:03.153Z,99450.19
2022-10-10T00:42:29.932Z,99426.63
2022-10-10T00:45:27.125Z,99448.84
2022-10-10T00:48:00.247Z,99448.00
2022-10-10T00:50:28.566Z,99429.63
2022-10-10T00:52:56.421Z,99437.81
2022-10-10T00:55:23.424Z,99433.13
2022-10-10T00:57:50.783Z,99444.78
2022-10-10T01:00:18.072Z,99388.31
2022-10-10T01:02:44.823Z,99401.88
2022-10-10T01:05:11.940Z,99431.97
2022-10-10T01:07:39.574Z,99434.91
2022-10-10T01:10:10.972Z,99439.41
2022-10-10T01:12:55.685Z,99436.88
2022-10-10T01:15:38.566Z,99421.53
2022-10-10T01:18:26.473Z,99425.19
2022-10-10T01:21:09.373Z,99418.84
2022-10-10T01:23:51.202Z,99396.28
2022-10-10T01:26:44.343Z,99400.53
2022-10-10T01:29:30.395Z,99414.25
2022-10-10T01:32:22.847Z,99392.09
2022-10-10T01:35:09.189Z,99426.06
2022-10-10T01:37:53.602Z,99412.31
2022-10-10T01:40:35.552Z,99397.78
2022-10-10T01:43:04.912Z,99410.56
2022-10-10T01:45:31.818Z,99411.34
2022-10-10T01:48:03.096Z,99411.44
2022-10-10T01:50:32.839Z,99388.75
2022-10-10T01:53:16.832Z,99411.84
2022-10-10T01:56:03.632Z,99383.00
2022-10-10T01:58:36.078Z,99404.06
2022-10-10T02:01:27.563Z,99402.72
2022-10-10T02:04:18.672Z,99374.13
2022-10-10T02:06:53.908Z,99389.69
2022-10-10T02:09:29.084Z,99396.13
2022-10-10T02:11:58.545Z,99383.03
2022-10-10T02:14:32.101Z,99387.63
2022-10-10T02:17:02.221Z,99397.00
2022-10-10T02:19:30.557Z,99357.84
2022-10-10T02:21:58.010Z,99343.13
2022-10-10T02:24:25.389Z,99371.31
2022-10-10T02:27:30.682Z,99382.00
2022-10-10T02:29:59.553Z,99371.72
2022-10-10T02:32:36.557Z,99389.63
2022-10-10T02:35:15.535Z,99390.38
2022-10-10T02:37:42.862Z,99400.22
2022-10-10T02:40:12.572Z,99392.31
2022-10-10T02:42:40.453Z,99386.75
2022-10-10T02:45:07.930Z,99389.19
2022-10-10T02:47:34.952Z,99389.44
2022-10-10T02:50:01.627Z,99389.44
2022-10-10T02:52:28.541Z,99392.47
2022-10-10T02:54:55.373Z,99389.41
2022-10-10T02:57:22.115Z,99387.72
2022-10-10T02:59:48.763Z,99382.81
2022-10-10T03:02:15.852Z,99403.97
2022-10-10T03:04:42.656Z,99375.78
2022-10-10T03:07:09.282Z,99390.81
2022-10-10T03:09:35.987Z,99384.56
2022-10-10T03:12:02.753Z,99394.88
2022-10-10T03:14:29.481Z,99387.94
2022-10-10T03:16:56.250Z,99401.16
2022-10-10T03:19:23.085Z,99395.31
2022-10-10T03:21:49.724Z,99387.72
2022-10-10T03:24:16.392Z,99393.91
2022-10-10T03:26:43.169Z,99389.63
2022-10-10T03:29:10.126Z,99389.03
2022-10-10T03:31:36.819Z,99386.56
2022-10-10T03:34:03.571Z,99382.59
2022-10-10T03:36:31.476Z,99378.72
2022-10-10T03:38:58.272Z,99353.09
2022-10-10T03:41:25.036Z,99390.81
2022-10-10T03:43:52.137Z,99340.81
2022-10-10T03:46:19.075Z,99388.84
2022-10-10T03:48:47.643Z,99384.88
2022-10-10T03:51:14.759Z,99393.47
2022-10-10T03:53:41.572Z,99367.28
2022-10-10T03:56:08.306Z,99390.44
2022-10-10T03:58:35.012Z,99377.09
2022-10-10T04:01:03.204Z,99379.75
2022-10-10T04:03:30.082Z,99385.84
2022-10-10T04:05:56.911Z,99390.78
2022-10-10T04:08:23.892Z,99357.53
2022-10-10T04:10:52.624Z,99386.56
2022-10-10T04:13:20.371Z,99386.91
2022-10-10T04:15:51.349Z,99368.88
2022-10-10T04:18:18.685Z,99379.25
2022-10-10T04:20:45.392Z,99367.38
2022-10-10T04:23:12.073Z,99383.69
2022-10-10T04:25:38.711Z,99343.34
2022-10-10T04:28:05.453Z,99379.25
2022-10-10T04:30:34.137Z,99372.72
2022-10-10T04:33:01.111Z,99379.66
2022-10-10T04:35:27.957Z,99365.56
2022-10-10T04:37:54.741Z,99386.56
2022-10-10T04:40:26.215Z,99365.94
2022-10-10T04:42:54.366Z,99380.38
2022-10-10T04:45:21.252Z,99367.38
2022-10-10T04:47:47.980Z,99368.06
2022-10-10T04:50:14.631Z,99362.59
2022-10-10T04:52:41.266Z,99358.13
2022-10-10T04:55:08.226Z,99364.28
2022-10-10T04:57:34.888Z,99370.75
2022-10-10T05:00:01.658Z,99362.16
2022-10-10T05:02:28.347Z,99361.13
2022-10-10T05:04:55.013Z,99362.22
2022-10-10T05:07:21.969Z,99368.69
2022-10-10T05:09:48.645Z,99369.63
2022-10-10T05:12:15.375Z,99378.59
2022-10-10T05:14:45.925Z,99377.53
2022-10-10T05:17:14.881Z,99370.09
2022-10-10T05:19:41.572Z,99380.78
2022-10-10T05:22:08.295Z,99384.56
2022-10-10T05:24:35.424Z,99384.16
2022-10-10T05:27:02.095Z,99392.41
2022-10-10T05:29:29.018Z,99387.22
2022-10-10T05:31:55.833Z,99384.56
2022-10-10T05:34:22.485Z,99368.16
2022-10-10T05:36:49.257Z,99379.81
2022-10-10T05:39:15.975Z,99379.81
2022-10-10T05:41:42.712Z,99380.31
2022-10-10T05:44:10.306Z,99379.69
2022-10-10T05:46:37.044Z,99386.50
2022-10-10T05:49:03.787Z,99381.53
2022-10-10T05:51:30.514Z,99382.41
2022-10-10T05:53:57.980Z,99392.72
2022-10-10T05:56:24.812Z,99389.31
2022-10-10T05:58:51.780Z,99389.44
2022-10-10T06:01:18.706Z,99396.59
2022-10-10T06:03:45.537Z,99384.31
2022-10-10T06:06:12.198Z,99365.16
2022-10-10T06:08:38.909Z,99382.06
2022-10-10T06:11:11.295Z,99394.69
2022-10-10T06:13:38.958Z,99392.03
2022-10-10T06:16:05.762Z,99402.81
2022-10-10T06:18:32.542Z,99401.38
2022-10-10T06:21:07.004Z,99387.69
2022-10-10T06:23:34.494Z,99402.34
2022-10-10T06:26:01.315Z,99381.13
2022-10-10T06:28:28.306Z,99397.41
2022-10-10T06:30:55.082Z,99399.34
2022-10-10T06:33:21.945Z,99411.88
2022-10-10T06:35:49.597Z,99387.72
2022-10-10T06:38:17.434Z,99412.00
2022-10-10T06:40:44.953Z,99403.03
2022-10-10T06:43:13.560Z,99404.22
2022-10-10T06:45:42.698Z,99406.53
2022-10-10T06:48:10.576Z,99399.47
2022-10-10T06:50:37.587Z,99387.69
2022-10-10T06:53:05.202Z,99411.88
2022-10-10T06:55:32.209Z,99399.84
2022-10-10T06:57:59.224Z,99412.47
2022-10-10T07:00:26.239Z,99412.84
2022-10-10T07:02:53.339Z,99415.72
2022-10-10T07:05:20.452Z,99402.41
2022-10-10T07:07:47.143Z,99417.44
2022-10-10T07:10:15.736Z,99423.59
2022-10-10T07:12:44.953Z,99416.56
2022-10-10T07:15:12.175Z,99382.72
2022-10-10T07:17:39.047Z,99411.56
2022-10-10T07:20:06.156Z,99427.72
2022-10-10T07:22:33.265Z,99429.78
2022-10-10T07:24:59.950Z,99430.63
2022-10-10T07:27:26.736Z,99416.31
2022-10-10T07:29:53.672Z,99422.38
2022-10-10T07:32:20.523Z,99429.13
2022-10-10T07:34:47.265Z,99428.13
2022-10-10T07:37:13.986Z,99428.03
2022-10-10T07:39:40.802Z,99425.78
2022-10-10T07:42:07.533Z,99426.47
2022-10-10T07:44:34.914Z,99422.22
2022-10-10T07:47:02.065Z,99417.84
2022-10-10T07:49:28.902Z,99426.56
2022-10-10T07:52:00.542Z,99426.56
2022-10-10T07:54:31.548Z,99432.88
2022-10-10T07:56:58.323Z,99423.75
2022-10-10T07:59:25.443Z,99429.03
2022-10-10T08:01:52.527Z,99427.16
2022-10-10T08:04:19.519Z,99421.00
2022-10-10T08:06:46.345Z,99414.22
2022-10-10T08:09:13.060Z,99410.53
2022-10-10T08:11:39.893Z,99425.38
2022-10-10T08:14:06.724Z,99426.25
2022-10-10T08:16:33.508Z,99412.59
2022-10-10T08:19:00.343Z,99424.00
2022-10-10T08:21:27.122Z,99415.50
2022-10-10T08:23:53.835Z,99423.69
2022-10-10T08:26:20.553Z,99429.84
2022-10-10T08:28:48.796Z,99414.34
2022-10-10T08:31:20.615Z,99420.97
2022-10-10T08:33:48.179Z,99409.75
2022-10-10T08:36:17.918Z,99420.56
2022-10-10T08:38:44.757Z,99405.69
2022-10-10T08:41:37.505Z,99417.19
2022-10-10T08:44:13.633Z,99413.84
2022-10-10T08:47:00.036Z,99390.00
2022-10-10T08:49:50.051Z,99398.13
2022-10-10T08:52:35.398Z,99408.66
2022-10-10T08:55:07.773Z,99404.13
2022-10-10T08:57:47.749Z,99396.88
2022-10-10T09:00:20.092Z,99403.28
2022-10-10T09:02:54.337Z,99391.97
2022-10-10T09:05:40.351Z,99404.13
2022-10-10T09:08:34.224Z,99392.28
2022-10-10T09:11:03.852Z,99397.88
2022-10-10T09:13:42.587Z,99389.19
2022-10-10T09:16:23.588Z,99393.59
2022-10-10T09:19:09.089Z,99406.63
2022-10-10T09:21:39.630Z,99403.59
2022-10-10T09:24:15.467Z,99399.88
2022-10-10T09:26:53.093Z,99397.72
2022-10-10T09:29:25.752Z,99399.38
2022-10-10T09:32:10.175Z,99398.91
2022-10-10T09:34:44.402Z,99396.69
2022-10-10T09:37:35.294Z,99392.47
2022-10-10T09:40:19.675Z,99406.31
2022-10-10T09:42:46.444Z,99398.03
2022-10-10T09:45:19.455Z,99402.94
2022-10-10T09:47:51.375Z,99394.66
2022-10-10T09:50:18.318Z,99403.94
2022-10-10T09:52:46.072Z,99398.06
2022-10-10T09:55:23.491Z,99392.63
2022-10-10T09:57:52.408Z,99400.56
2022-10-10T10:00:19.059Z,99398.66
2022-10-10T10:02:50.200Z,99389.63
2022-10-10T10:05:27.843Z,99385.19
2022-10-10T10:07:54.679Z,99389.94
2022-10-10T10:10:27.351Z,99393.38
2022-10-10T10:12:55.162Z,99393.00
2022-10-10T10:15:28.857Z,99392.38
2022-10-10T10:18:17.528Z,99382.81
2022-10-10T10:20:46.548Z,99382.88
2022-10-10T10:23:24.331Z,99379.75
2022-10-10T10:26:17.609Z,99390.09
2022-10-10T10:28:45.428Z,99394.06
2022-10-10T10:31:20.603Z,99387.31
2022-10-10T10:34:08.602Z,99378.75
2022-10-10T10:36:59.997Z,99389.41
2022-10-10T10:39:57.803Z,99393.44
2022-10-10T10:42:30.505Z,99398.06
2022-10-10T10:45:06.433Z,99397.38
2022-10-10T10:47:33.140Z,99402.22
2022-10-10T10:50:23.102Z,99382.56
2022-10-10T10:53:17.038Z,99381.47
2022-10-10T10:56:12.735Z,99381.19
2022-10-10T11:02:01.140Z,99371.44
2022-10-10T11:05:23.000Z,99370.44
2022-10-10T11:07:48.984Z,99377.38
2022-10-10T11:10:37.614Z,99351.47
2022-10-10T11:13:23.511Z,99361.69
2022-10-10T11:19:11.933Z,99369.25
2022-10-10T11:21:41.373Z,99379.56
2022-10-10T11:24:15.517Z,99365.41
2022-10-10T11:26:50.767Z,99368.78
2022-10-10T11:29:25.825Z,99360.47
2022-10-10T11:32:06.991Z,99347.94
2022-10-10T11:34:45.142Z,99356.44
2022-10-10T11:37:19.995Z,99347.25
2022-10-10T11:39:55.779Z,99341.91
2022-10-10T11:42:50.326Z,99350.66
2022-10-10T11:45:27.465Z,99336.81
2022-10-10T11:48:06.793Z,99332.63
2022-10-10T11:50:39.608Z,99333.06
2022-10-10T11:53:15.122Z,99338.03
2022-10-10T11:55:50.726Z,99321.09
2022-10-10T11:58:23.255Z,99330.59
2022-10-10T12:00:54.885Z,99322.22
2022-10-10T12:03:21.646Z,99311.38
2022-10-10T12:05:58.242Z,99324.81
2022-10-10T12:08:36.116Z,99312.44
2022-10-10T12:11:34.104Z,99299.09
2022-10-10T12:14:02.189Z,99301.75
2022-10-10T12:16:31.221Z,99323.72
2022-10-10T12:19:05.419Z,99298.03
2022-10-10T12:21:51.473Z,99304.03
2022-10-10T12:24:18.543Z,99264.84
2022-10-10T12:26:57.508Z,99306.56
2022-10-10T12:29:56.322Z,99301.69
2022-10-10T12:32:23.068Z,99298.69
2022-10-10T12:34:49.717Z,99298.47
2022-10-10T12:37:32.363Z,99293.03
2022-10-10T12:40:08.188Z,99294.28
2022-10-10T12:42:38.632Z,99296.00
2022-10-10T12:45:30.431Z,99290.75
2022-10-10T12:48:06.289Z,99290.94
2022-10-10T12:50:40.347Z,99294.72
2022-10-10T12:53:13.329Z,99296.59
2022-10-10T12:55:45.833Z,99295.16
2022-10-10T12:58:29.356Z,99275.91
2022-10-10T13:00:59.275Z,99280.50
2022-10-10T13:03:54.859Z,99280.94
2022-10-10T13:06:39.791Z,99264.72
2022-10-10T13:09:16.831Z,99270.84
2022-10-10T13:12:02.836Z,99292.72
2022-10-10T13:14:44.732Z,99280.97
2022-10-10T13:17:23.825Z,99275.84
2022-10-10T13:19:52.277Z,99252.66
2022-10-10T13:22:19.827Z,99256.28
2022-10-10T13:24:48.179Z,99248.06
2022-10-10T13:27:22.806Z,99270.94
2022-10-10T13:29:50.863Z,99261.06
2022-10-10T13:32:21.179Z,99262.22
2022-10-10T13:34:52.435Z,99242.06
2022-10-10T13:37:23.003Z,99271.84
2022-10-10T13:39:52.729Z,99255.50
2022-10-10T13:42:31.726Z,99267.19
2022-10-10T13:45:27.873Z,99267.38
2022-10-10T13:48:03.921Z,99261.22
2022-10-10T13:50:35.264Z,99253.00
2022-10-10T13:53:27.138Z,99254.50
2022-10-10T13:56:05.604Z,99250.41
2022-10-10T13:59:08.549Z,99258.00
2022-10-10T14:01:39.820Z,99252.69
2022-10-10T14:04:12.588Z,99251.97
2022-10-10T14:07:03.492Z,99249.75
2022-10-10T14:09:38.105Z,99211.19
2022-10-10T14:12:37.133Z,99252.75
2022-10-10T14:15:05.143Z,99245.47
2022-10-10T14:17:32.006Z,99246.34
2022-10-10T14:19:58.754Z,99213.56
2022-10-10T14:22:25.502Z,99234.09
2022-10-10T14:24:52.187Z,99240.50
2022-10-10T14:27:26.603Z,99228.47
2022-10-10T14:29:55.213Z,99245.81
2022-10-10T14:32:22.818Z,99239.34
2022-10-10T14:34:49.541Z,99230.81
2022-10-10T14:37:28.106Z,99226.13
2022-10-10T14:39:55.744Z,99245.19
2022-10-10T14:42:23.796Z,99239.72
2022-10-10T14:44:50.522Z,99232.53
2022-10-10T14:47:22.249Z,99233.78
2022-10-10T14:49:49.495Z,99240.97
2022-10-10T14:52:16.349Z,99234.44
2022-10-10T14:54:43.036Z,99235.03
2022-10-10T14:57:12.614Z,99241.00
2022-10-10T14:59:48.310Z,99225.56
2022-10-10T15:02:21.636Z,99259.19
2022-10-10T15:04:49.077Z,99219.38
2022-10-10T15:07:16.734Z,99246.00
2022-10-10T15:10:09.745Z,99258.56
2022-10-10T15:12:34.287Z,99254.41
2022-10-10T15:15:01.025Z,99245.16
2022-10-10T15:17:29.734Z,99256.09
2022-10-10T15:19:56.812Z,99256.16
2022-10-10T15:22:23.594Z,99242.06
2022-10-10T15:24:50.305Z,99253.38
2022-10-10T15:27:17.422Z,99253.63
2022-10-10T15:29:44.171Z,99248.91
2022-10-10T15:32:10.852Z,99268.25
2022-10-10T15:34:37.652Z,99258.91
2022-10-10T15:37:04.570Z,99244.28
2022-10-10T15:39:31.532Z,99247.59
2022-10-10T15:42:06.973Z,99273.31
2022-10-10T15:44:36.414Z,99267.09
2022-10-10T15:47:03.195Z,99276.06
2022-10-10T15:49:30.113Z,99284.88
2022-10-10T15:51:56.902Z,99271.47
2022-10-10T15:54:23.972Z,99291.25
2022-10-10T15:56:50.738Z,99268.63
2022-10-10T15:59:17.989Z,99282.00
2022-10-10T16:01:44.702Z,99287.63
2022-10-10T16:04:11.740Z,99297.38
2022-10-10T16:06:38.452Z,99289.50
2022-10-10T16:09:26.641Z,99295.56
2022-10-10T16:11:51.939Z,99302.78
2022-10-10T16:14:18.918Z,99304.69
2022-10-10T16:16:45.830Z,99296.31
2022-10-10T16:19:12.547Z,99297.16
2022-10-10T16:21:39.282Z,99266.16
2022-10-10T16:24:06.775Z,99293.97
2022-10-10T16:26:35.479Z,99301.06
2022-10-10T16:29:02.596Z,99291.28
2022-10-10T16:31:30.347Z,99303.94
2022-10-10T16:33:58.522Z,99284.91
2022-10-10T16:36:31.157Z,99313.91
2022-10-10T16:38:58.871Z,99316.78
2022-10-10T16:41:47.122Z,99306.13
2022-10-10T16:44:15.441Z,99302.94
2022-10-10T16:46:42.173Z,99294.72
2022-10-10T16:49:11.863Z,99313.44
2022-10-10T16:51:38.727Z,99295.56
2022-10-10T16:54:06.044Z,99304.84
2022-10-10T16:56:32.988Z,99312.63
2022-10-10T16:59:00.295Z,99307.72
2022-10-10T17:01:28.015Z,99308.75
2022-10-10T17:03:55.249Z,99315.84
2022-10-10T17:06:23.536Z,99326.13
2022-10-10T17:08:52.838Z,99321.56
2022-10-10T17:11:22.203Z,99322.19
2022-10-10T17:13:51.232Z,99333.53
2022-10-10T17:16:59.790Z,99335.03
2022-10-10T17:19:10.462Z,99329.44
2022-10-10T17:21:37.483Z,99317.81
2022-10-10T17:24:05.397Z,99328.09
2022-10-10T17:26:32.376Z,99332.16
2022-10-10T17:29:00.627Z,99328.59
2022-10-10T17:31:27.884Z,99339.97
2022-10-10T17:33:57.338Z,99345.56
2022-10-10T17:36:26.121Z,99342.13
2022-10-10T17:38:53.610Z,99331.28
2022-10-10T17:41:23.200Z,99328.25
2022-10-10T17:43:51.164Z,99340.53
2022-10-10T17:46:37.799Z,99350.34
2022-10-10T17:49:07.323Z,99338.41
2022-10-10T17:51:35.844Z,99332.13
2022-10-10T17:54:03.736Z,99336.19
2022-10-10T17:56:32.643Z,99343.44
2022-10-10T17:59:02.153Z,99330.94
2022-10-10T18:01:33.945Z,99351.56
2022-10-10T18:04:02.523Z,99339.75
2022-10-10T18:06:32.702Z,99343.00
2022-10-10T18:09:00.562Z,99335.25
2022-10-10T18:11:31.068Z,99345.88
2022-10-10T18:14:00.800Z,99345.47
2022-10-10T18:16:40.172Z,99345.81
2022-10-10T18:19:08.689Z,99333.63
2022-10-10T18:21:35.947Z,99353.53
2022-10-10T18:24:03.137Z,99353.69
2022-10-10T18:26:31.296Z,99355.22
2022-10-10T18:28:58.926Z,99333.25
2022-10-10T18:31:32.242Z,99356.72
2022-10-10T18:34:00.048Z,99356.72
2022-10-10T18:36:30.155Z,99350.16
2022-10-10T18:39:06.265Z,99349.38
2022-10-10T18:41:34.904Z,99351.69
2022-10-10T18:44:11.713Z,99341.72
2022-10-10T18:46:40.387Z,99330.56
2022-10-10T18:49:10.724Z,99354.00
2022-10-10T18:51:42.906Z,99345.44
2022-10-10T18:54:14.015Z,99353.84
2022-10-10T18:56:42.153Z,99344.22
2022-10-10T18:59:15.941Z,99360.09
2022-10-10T19:01:45.800Z,99332.75
2022-10-10T19:04:15.197Z,99356.38
2022-10-10T19:06:42.955Z,99349.97
2022-10-10T19:09:12.033Z,99363.81
2022-10-10T19:11:41.581Z,99359.41
2022-10-10T19:14:14.452Z,99356.50
2022-10-10T19:16:42.865Z,99340.78
2022-10-10T19:19:14.236Z,99344.63
2022-10-10T19:21:41.560Z,99351.88
2022-10-10T19:24:09.180Z,99353.84
2022-10-10T19:26:37.158Z,99342.44
2022-10-10T19:29:07.491Z,99344.91
2022-10-10T19:31:36.125Z,99351.00
2022-10-10T19:34:03.252Z,99346.41
2022-10-10T19:36:30.015Z,99348.25
2022-10-10T19:39:00.098Z,99349.03
2022-10-10T19:41:27.528Z,99349.88
2022-10-10T19:43:54.493Z,99353.06
2022-10-10T19:46:22.748Z,99326.19
2022-10-10T19:48:51.604Z,99365.78
2022-10-10T19:51:20.063Z,99375.16
2022-10-10T19:53:47.693Z,99368.03
2022-10-10T19:56:16.381Z,99376.13
2022-10-10T19:58:43.740Z,99373.44
2022-10-10T20:01:16.108Z,99375.28
2022-10-10T20:03:43.784Z,99378.00
2022-10-10T20:06:11.194Z,99374.91
2022-10-10T20:08:38.230Z,99383.00
2022-10-10T20:11:06.452Z,99380.94
2022-10-10T20:13:33.557Z,99380.09
2022-10-10T20:16:03.941Z,99380.03
2022-10-10T20:18:33.441Z,99370.78
2022-10-10T20:21:00.641Z,99391.94
2022-10-10T20:23:27.852Z,99385.16
2022-10-10T20:25:54.794Z,99393.47
2022-10-10T20:28:22.621Z,99396.31
2022-10-10T20:30:51.427Z,99379.56
2022-10-10T20:33:20.872Z,99391.03
2022-10-10T20:35:55.112Z,99399.81
2022-10-10T20:38:22.863Z,99412.50
2022-10-10T20:40:50.452Z,99379.94
2022-10-10T20:43:17.323Z,99405.25
2022-10-10T20:45:45.073Z,99413.13
2022-10-10T20:48:11.978Z,99412.66
2022-10-10T20:50:39.291Z,99415.56
2022-10-10T20:53:07.084Z,99407.25
2022-10-10T20:55:34.181Z,99398.31
2022-10-10T20:58:01.269Z,99394.63
2022-10-10T21:00:28.075Z,99414.03
2022-10-10T21:02:56.612Z,99408.84
2022-10-10T21:05:24.124Z,99413.88
2022-10-10T21:07:51.151Z,99412.63
2022-10-10T21:10:18.474Z,99408.88
2022-10-10T21:12:45.394Z,99416.13
2022-10-10T21:15:12.118Z,99414.91
2022-10-10T21:17:39.143Z,99414.91
2022-10-10T21:20:06.505Z,99407.09
2022-10-10T21:22:33.322Z,99402.88
2022-10-10T21:25:00.140Z,99414.88
2022-10-10T21:27:26.851Z,99421.81
2022-10-10T21:29:53.572Z,99413.66
2022-10-10T21:32:20.324Z,99409.78
2022-10-10T21:34:47.022Z,99433.13
2022-10-10T21:37:14.284Z,99420.41
2022-10-10T21:39:41.044Z,99441.19
2022-10-10T21:42:07.761Z,99396.72
2022-10-10T21:44:34.728Z,99425.44
2022-10-10T21:47:01.442Z,99444.16
2022-10-10T21:49:28.177Z,99437.28
2022-10-10T21:51:54.807Z,99444.72
2022-10-10T21:54:21.693Z,99435.28
2022-10-10T21:56:48.366Z,99449.00
2022-10-10T21:59:15.072Z,99422.50
2022-10-10T22:01:42.801Z,99432.59
2022-10-10T22:04:09.982Z,99436.06
2022-10-10T22:06:36.772Z,99422.50
2022-10-10T22:09:04.190Z,99443.50
2022-10-10T22:11:32.732Z,99441.72
2022-10-10T22:14:02.490Z,99423.16
2022-10-10T22:16:29.897Z,99421.31
2022-10-10T22:18:57.787Z,99430.09
2022-10-10T22:21:30.270Z,99434.50
2022-10-10T22:23:57.928Z,99425.72
2022-10-10T22:26:24.599Z,99435.88
2022-10-10T22:28:51.333Z,99425.88
2022-10-10T22:31:18.113Z,99413.59
2022-10-10T22:33:45.218Z,99429.94
2022-10-10T22:36:12.492Z,99433.13
2022-10-10T22:38:42.212Z,99438.03
2022-10-10T22:41:09.930Z,99432.78
2022-10-10T22:43:37.022Z,99439.19
2022-10-10T22:46:04.933Z,99454.88
2022-10-10T22:48:31.951Z,99431.56
2022-10-10T22:51:04.371Z,99442.75
2022-10-10T22:53:31.080Z,99416.06
2022-10-10T22:55:58.202Z,99443.97
2022-10-10T22:58:25.439Z,99438.28
2022-10-10T23:03:33.702Z,99423.22
2022-10-10T23:06:00.433Z,99444.06
2022-10-10T23:08:27.284Z,99447.75
2022-10-10T23:10:54.004Z,99437.81
2022-10-10T23:13:20.712Z,99445.59
2022-10-10T23:15:47.423Z,99447.44
2022-10-10T23:18:14.232Z,99451.06
2022-10-10T23:20:41.008Z,99445.28
2022-10-10T23:23:07.693Z,99440.03
2022-10-10T23:25:34.347Z,99450.88
2022-10-10T23:28:01.173Z,99449.69
2022-10-10T23:30:27.857Z,99441.34
2022-10-10T23:32:54.553Z,99436.28
2022-10-10T23:35:21.296Z,99459.03
2022-10-10T23:37:48.542Z,99445.16
2022-10-10T23:40:15.564Z,99463.41
2022-10-10T23:42:42.228Z,99443.31
2022-10-10T23:45:09.322Z,99466.53
2022-10-10T23:47:36.034Z,99451.50
2022-10-10T23:50:02.876Z,99463.56
2022-10-10T23:52:29.540Z,99463.22
2022-10-10T23:54:56.244Z,99467.19
2022-10-10T23:57:22.943Z,99459.44
2022-10-10T23:59:49.776Z,99463.84
